createdAt,value
2023-04-29T00:02:08.044Z,161786.78
2023-04-29T00:05:12.877Z,161789.44
2023-04-29T00:08:17.229Z,161792.06
2023-04-29T00:11:21.557Z,161826.09
2023-04-29T00:14:25.863Z,161801.19
2023-04-29T00:17:29.740Z,161778.97
2023-04-29T00:20:34.099Z,161776.34
2023-04-29T00:23:38.421Z,161780.28
2023-04-29T00:26:42.166Z,161784.16
2023-04-29T00:29:46.509Z,161771.09
2023-04-29T00:32:50.535Z,161768.47
2023-04-29T00:35:54.622Z,161769.81
2023-04-29T00:38:59.317Z,161771.09
2023-04-29T00:42:03.641Z,161777.69
2023-04-29T00:45:14.375Z,161790.72
2023-04-29T00:48:18.263Z,161775.03
2023-04-29T00:51:22.672Z,161765.81
2023-04-29T00:54:26.715Z,161776.34
2023-04-29T00:57:30.731Z,161781.56
2023-04-29T01:00:35.318Z,161797.31
2023-04-29T01:03:39.762Z,161795.97
2023-04-29T01:06:53.037Z,161794.69
2023-04-29T01:09:59.704Z,161792.06
2023-04-29T01:13:14.127Z,161818.22
2023-04-29T01:16:38.645Z,161811.69
2023-04-29T01:19:58.823Z,161802.53
2023-04-29T01:23:03.073Z,161794.69
2023-04-29T01:26:08.262Z,161810.41
2023-04-29T01:29:25.836Z,161810.41
2023-04-29T01:32:43.582Z,161810.41
2023-04-29T01:36:03.808Z,161810.41
2023-04-29T01:39:32.330Z,161811.69
2023-04-29T01:42:44.703Z,161807.75
2023-04-29T01:45:48.631Z,161797.31
2023-04-29T01:48:54.706Z,161802.53
2023-04-29T01:51:58.724Z,161807.75
2023-04-29T01:55:03.678Z,161807.75
2023-04-29T01:58:07.891Z,161792.06
2023-04-29T02:01:11.957Z,161792.06
2023-04-29T02:04:15.798Z,161807.75
2023-04-29T02:07:19.682Z,161797.31
2023-04-29T02:10:23.904Z,161790.72
2023-04-29T02:13:28.305Z,161799.88
2023-04-29T02:16:32.172Z,161797.31
2023-04-29T02:19:36.467Z,161799.88
2023-04-29T02:22:40.276Z,161792.06
2023-04-29T02:25:44.147Z,161813.00
2023-04-29T02:28:47.923Z,161813.00
2023-04-29T02:31:51.759Z,161809.06
2023-04-29T02:34:56.016Z,161795.97
2023-04-29T02:38:00.240Z,161786.78
2023-04-29T02:41:04.095Z,161781.56
2023-04-29T02:44:08.228Z,161786.78
2023-04-29T02:47:12.615Z,161793.38
2023-04-29T02:50:17.391Z,161792.06
2023-04-29T02:53:21.821Z,161792.06
2023-04-29T02:56:25.832Z,161788.13
2023-04-29T02:59:29.825Z,161789.44
2023-04-29T03:02:34.129Z,161778.97
2023-04-29T03:05:37.892Z,161769.81
2023-04-29T03:08:41.935Z,161771.09
2023-04-29T03:11:46.164Z,161776.34
2023-04-29T03:14:49.960Z,161776.34
2023-04-29T03:17:54.171Z,161778.97
2023-04-29T03:20:58.697Z,161767.16
2023-04-29T03:24:02.756Z,161764.56
2023-04-29T03:27:06.806Z,161769.81
2023-04-29T03:30:11.198Z,161763.22
2023-04-29T03:33:15.081Z,161765.81
2023-04-29T03:36:19.702Z,161765.81
2023-04-29T03:39:23.617Z,161755.41
2023-04-29T03:42:27.661Z,161767.16
2023-04-29T03:45:31.900Z,161768.47
2023-04-29T03:48:36.874Z,161788.13
2023-04-29T03:51:40.876Z,161785.50
2023-04-29T03:54:45.231Z,161789.44
2023-04-29T03:57:49.110Z,161820.81
2023-04-29T04:00:53.393Z,161824.75
2023-04-29T04:03:57.960Z,161835.25
2023-04-29T04:07:03.875Z,161847.06
2023-04-29T04:10:07.809Z,161837.84
2023-04-29T04:13:11.981Z,161839.19
2023-04-29T04:16:16.481Z,161847.06
2023-04-29T04:19:20.636Z,161843.13
2023-04-29T04:22:24.858Z,161849.66
2023-04-29T04:25:30.216Z,161857.50
2023-04-29T04:28:34.260Z,161864.09
2023-04-29T04:31:38.280Z,161871.91
2023-04-29T04:34:42.848Z,161868.03
2023-04-29T04:37:46.864Z,161883.72
2023-04-29T04:40:50.831Z,161886.31
2023-04-29T04:43:54.816Z,161895.47
2023-04-29T04:47:01.169Z,161911.16
2023-04-29T04:50:06.315Z,161908.56
2023-04-29T04:53:10.904Z,161921.72
2023-04-29T04:56:15.145Z,161950.50
2023-04-29T04:59:19.083Z,161951.84
2023-04-29T05:02:22.959Z,161942.63
2023-04-29T05:05:27.225Z,161954.44
2023-04-29T05:08:31.533Z,161967.53
2023-04-29T05:11:35.795Z,161955.75
2023-04-29T05:14:39.765Z,161936.06
2023-04-29T05:17:43.898Z,161930.84
2023-04-29T05:20:48.226Z,161938.75
2023-04-29T05:23:52.291Z,161957.00
2023-04-29T05:26:56.396Z,161968.84
2023-04-29T05:30:01.320Z,161968.84
2023-04-29T05:33:05.133Z,161976.69
2023-04-29T05:36:09.354Z,162004.19
2023-04-29T05:39:13.843Z,162021.22
2023-04-29T05:42:17.924Z,162053.97
2023-04-29T05:45:21.930Z,162074.94
2023-04-29T05:48:26.081Z,162102.41
2023-04-29T05:51:31.719Z,162105.06
2023-04-29T05:54:35.866Z,162116.84
2023-04-29T05:57:40.096Z,162157.41
2023-04-29T06:00:44.206Z,162196.75
2023-04-29T06:03:48.223Z,162232.13
2023-04-29T06:06:53.617Z,162292.41
2023-04-29T06:09:57.804Z,162310.75
2023-04-29T06:13:01.513Z,162315.97
2023-04-29T06:16:05.952Z,162319.91
2023-04-29T06:19:10.194Z,162323.84
2023-04-29T06:22:14.310Z,162319.91
2023-04-29T06:25:18.288Z,162285.81
2023-04-29T06:28:22.601Z,162245.22
2023-04-29T06:31:27.790Z,162226.84
2023-04-29T06:34:32.500Z,162217.75
2023-04-29T06:37:38.191Z,162199.38
2023-04-29T06:40:42.429Z,162187.59
2023-04-29T06:43:48.549Z,162188.94
2023-04-29T06:46:53.238Z,162178.41
2023-04-29T06:49:57.325Z,162162.69
2023-04-29T06:53:01.314Z,162160.09
2023-04-29T06:56:06.081Z,162200.72
2023-04-29T06:59:12.491Z,162199.38
2023-04-29T07:02:16.493Z,162192.81
2023-04-29T07:05:20.500Z,162188.94
2023-04-29T07:08:24.712Z,162198.03
2023-04-29T07:11:29.028Z,162192.81
2023-04-29T07:14:33.531Z,162174.44
2023-04-29T07:17:38.099Z,162181.00
2023-04-29T07:20:42.315Z,162154.84
2023-04-29T07:23:46.110Z,162135.22
2023-04-29T07:26:50.328Z,162144.31
2023-04-29T07:29:54.652Z,162149.59
2023-04-29T07:32:58.703Z,162136.50
2023-04-29T07:36:03.899Z,162152.19
2023-04-29T07:39:08.236Z,162129.94
2023-04-29T07:42:12.656Z,162103.75
2023-04-29T07:45:17.215Z,162097.19
2023-04-29T07:48:21.797Z,162085.44
2023-04-29T07:51:27.425Z,162106.34
2023-04-29T07:54:31.199Z,162095.88
2023-04-29T07:57:35.276Z,162105.06
2023-04-29T08:00:39.489Z,162129.94
2023-04-29T08:03:43.874Z,162136.50
2023-04-29T08:06:48.519Z,162174.44
2023-04-29T08:09:54.587Z,162219.03
2023-04-29T08:12:59.044Z,162258.34
2023-04-29T08:16:03.227Z,162250.50
2023-04-29T08:19:07.158Z,162195.44
2023-04-29T08:22:12.218Z,162173.13
2023-04-29T08:25:16.046Z,162135.22
2023-04-29T08:28:19.831Z,162119.47
2023-04-29T08:31:23.836Z,162094.53
2023-04-29T08:34:28.294Z,162141.72
2023-04-29T08:37:32.414Z,162221.63
2023-04-29T08:40:41.401Z,162350.06
2023-04-29T08:43:45.518Z,162461.47
2023-04-29T08:46:50.987Z,162545.34
2023-04-29T08:49:55.138Z,162524.41
2023-04-29T08:52:59.244Z,162436.59
2023-04-29T08:56:09.986Z,162336.94
2023-04-29T08:59:20.065Z,162258.34
2023-04-29T09:02:25.873Z,162220.34
2023-04-29T09:05:31.436Z,162207.19
2023-04-29T09:08:35.849Z,162212.47
2023-04-29T09:11:39.788Z,162232.13
2023-04-29T09:14:44.360Z,162229.53
2023-04-29T09:17:49.177Z,162195.44
2023-04-29T09:20:54.240Z,162162.69
2023-04-29T09:24:00.380Z,162153.53
2023-04-29T09:27:04.521Z,162143.03
2023-04-29T09:30:09.286Z,162158.75
2023-04-29T09:33:14.097Z,162153.53
2023-04-29T09:36:45.721Z,162226.84
2023-04-29T09:39:49.933Z,162276.66
2023-04-29T09:42:53.988Z,162275.38
2023-04-29T09:45:58.010Z,162267.53
2023-04-29T09:49:26.044Z,162363.16
2023-04-29T09:52:41.801Z,162365.78
2023-04-29T09:56:00.543Z,162342.22
2023-04-29T09:59:10.434Z,162258.34
2023-04-29T10:02:16.257Z,162237.34
2023-04-29T10:05:21.964Z,162207.19
2023-04-29T10:08:28.775Z,162190.16
2023-04-29T10:11:34.310Z,162158.75
2023-04-29T10:15:08.588Z,162093.25
2023-04-29T10:18:21.366Z,162051.34
2023-04-29T10:21:31.106Z,162038.25
2023-04-29T10:24:39.852Z,162038.25
2023-04-29T10:27:44.971Z,162074.94
2023-04-29T10:30:54.396Z,162145.66
2023-04-29T10:33:59.040Z,162154.84
2023-04-29T10:37:03.175Z,162148.25
2023-04-29T10:40:22.290Z,162111.56
2023-04-29T10:43:27.247Z,162093.25
2023-04-29T10:46:31.592Z,162081.44
2023-04-29T10:49:37.330Z,162047.41
2023-04-29T10:52:56.256Z,162023.84
2023-04-29T10:56:06.229Z,161998.94
2023-04-29T10:59:12.337Z,161970.13
2023-04-29T11:02:16.230Z,161959.66
2023-04-29T11:05:34.258Z,161993.72
2023-04-29T11:08:41.644Z,162025.13
2023-04-29T11:11:54.303Z,162072.34
2023-04-29T11:15:04.782Z,162084.09
2023-04-29T11:18:11.514Z,162090.66
2023-04-29T11:21:15.962Z,162064.47
2023-04-29T11:24:20.372Z,162013.34
2023-04-29T11:27:25.976Z,161993.72
2023-04-29T11:30:30.278Z,161993.72
2023-04-29T11:33:34.348Z,162027.72
2023-04-29T11:36:38.289Z,162030.38
2023-04-29T11:39:42.455Z,162053.97
2023-04-29T11:42:48.390Z,162026.44
2023-04-29T11:45:53.580Z,162046.09
2023-04-29T11:48:59.962Z,162046.09
2023-04-29T11:52:04.393Z,162022.56
2023-04-29T11:55:12.163Z,162000.25
2023-04-29T11:58:16.604Z,161951.84
2023-04-29T12:01:21.410Z,161943.94
2023-04-29T12:04:26.173Z,161962.25
2023-04-29T12:07:30.426Z,161993.72
2023-04-29T12:10:36.680Z,162012.03
2023-04-29T12:13:41.403Z,162031.66
2023-04-29T12:16:46.412Z,162053.97
2023-04-29T12:19:51.348Z,162105.06
2023-04-29T12:22:55.991Z,162181.00
2023-04-29T12:26:00.939Z,162263.59
2023-04-29T12:29:05.453Z,162322.50
2023-04-29T12:32:18.662Z,162350.06
2023-04-29T12:35:23.202Z,162338.28
2023-04-29T12:38:31.189Z,162351.34
2023-04-29T12:41:40.345Z,162354.00
2023-04-29T12:44:48.507Z,162414.25
2023-04-29T12:47:53.904Z,162466.69
2023-04-29T12:50:59.769Z,162534.84
2023-04-29T12:54:04.887Z,162570.25
2023-04-29T12:57:10.237Z,162593.88
2023-04-29T13:00:15.092Z,162609.59
2023-04-29T13:03:22.004Z,162618.75
2023-04-29T13:06:27.357Z,162654.22
2023-04-29T13:09:31.419Z,162610.91
2023-04-29T13:12:35.595Z,162524.41
2023-04-29T13:15:39.403Z,162441.81
2023-04-29T13:18:49.214Z,162440.47
2023-04-29T13:22:02.836Z,162423.44
2023-04-29T13:25:07.323Z,162444.41
2023-04-29T13:28:11.813Z,162420.88
2023-04-29T13:31:15.754Z,162426.03
2023-04-29T13:34:20.436Z,162422.09
2023-04-29T13:37:24.351Z,162436.59
2023-04-29T13:40:28.571Z,162453.59
2023-04-29T13:43:38.343Z,162452.25
2023-04-29T13:46:44.346Z,162437.88
2023-04-29T13:53:30.493Z,162397.22
2023-04-29T13:59:42.654Z,162427.38
2023-04-29T14:05:59.556Z,162486.38
2023-04-29T14:09:04.381Z,162490.31
2023-04-29T14:12:08.320Z,162517.81
2023-04-29T14:15:12.565Z,162554.56
2023-04-29T14:18:16.893Z,162588.59
2023-04-29T14:21:22.709Z,162592.53
2023-04-29T14:24:26.732Z,162575.53
2023-04-29T14:27:30.643Z,162580.75
2023-04-29T14:30:34.799Z,162620.09
2023-04-29T14:33:38.691Z,162667.28
2023-04-29T14:36:44.302Z,162660.72
2023-04-29T14:39:49.155Z,162681.72
2023-04-29T14:42:52.999Z,162648.94
2023-04-29T14:45:57.000Z,162662.06
2023-04-29T14:49:02.037Z,162660.72
2023-04-29T14:52:06.056Z,162633.22
2023-04-29T14:55:10.263Z,162578.13
2023-04-29T14:58:14.555Z,162547.97
2023-04-29T15:01:18.645Z,162517.81
2023-04-29T15:04:22.922Z,162473.25
2023-04-29T15:07:28.100Z,162475.91
2023-04-29T15:10:33.426Z,162433.97
2023-04-29T15:13:37.640Z,162426.03
2023-04-29T15:16:41.804Z,162410.31
2023-04-29T15:19:45.909Z,162389.38
2023-04-29T15:22:49.857Z,162394.59
2023-04-29T15:25:53.916Z,162419.53
2023-04-29T15:28:57.941Z,162426.03
2023-04-29T15:32:02.220Z,162449.69
2023-04-29T15:35:07.068Z,162460.13
2023-04-29T15:38:12.136Z,162478.53
2023-04-29T15:41:16.306Z,162492.91
2023-04-29T15:44:20.582Z,162504.75
2023-04-29T15:47:24.891Z,162498.13
2023-04-29T15:50:29.086Z,162478.53
2023-04-29T15:53:33.649Z,162486.38
2023-04-29T15:56:38.092Z,162495.56
2023-04-29T15:59:42.120Z,162488.97
2023-04-29T16:02:46.516Z,162485.03
2023-04-29T16:05:51.170Z,162467.97
2023-04-29T16:08:56.638Z,162466.69
2023-04-29T16:12:04.103Z,162454.91
2023-04-29T16:15:09.520Z,162448.38
2023-04-29T16:18:14.611Z,162448.38
2023-04-29T16:21:18.400Z,162443.09
2023-04-29T16:24:22.789Z,162440.47
2023-04-29T16:27:28.794Z,162435.25
2023-04-29T16:30:34.363Z,162427.38
2023-04-29T16:33:39.863Z,162424.75
2023-04-29T16:36:43.954Z,162426.03
2023-04-29T16:39:48.223Z,162431.31
2023-04-29T16:42:53.351Z,162424.75
2023-04-29T16:45:57.840Z,162427.38
2023-04-29T16:49:02.972Z,162422.09
2023-04-29T16:52:07.192Z,162414.25
2023-04-29T16:55:15.423Z,162418.19
2023-04-29T16:58:19.734Z,162411.66
2023-04-29T17:01:23.948Z,162399.88
2023-04-29T17:04:28.604Z,162381.50
2023-04-29T17:07:33.264Z,162365.78
2023-04-29T17:10:37.346Z,162352.66
2023-04-29T17:13:41.283Z,162343.50
2023-04-29T17:16:45.245Z,162310.75
2023-04-29T17:19:51.495Z,162302.84
2023-04-29T17:22:55.725Z,162289.75
2023-04-29T17:25:59.739Z,162274.03
2023-04-29T17:29:04.278Z,162280.66
2023-04-29T17:32:11.044Z,162259.66
2023-04-29T17:35:15.454Z,162253.06
2023-04-29T17:38:19.808Z,162243.91
2023-04-29T17:41:24.214Z,162238.69
2023-04-29T17:44:28.624Z,162234.78
2023-04-29T17:47:32.935Z,162229.53
2023-04-29T17:50:40.466Z,162228.19
2023-04-29T17:53:44.469Z,162225.56
2023-04-29T17:56:48.991Z,162219.03
2023-04-29T17:59:53.106Z,162199.38
2023-04-29T18:02:57.724Z,162185.00
2023-04-29T18:06:01.998Z,162171.91
2023-04-29T18:09:05.840Z,162167.97
2023-04-29T18:12:10.010Z,162160.09
2023-04-29T18:15:16.443Z,162153.53
2023-04-29T18:18:20.676Z,162140.38
2023-04-29T18:21:27.302Z,162136.50
2023-04-29T18:24:31.524Z,162143.03
2023-04-29T18:27:36.097Z,162118.19
2023-04-29T18:30:39.808Z,162129.94
2023-04-29T18:33:44.776Z,162106.34
2023-04-29T18:36:48.802Z,162105.06
2023-04-29T18:39:53.134Z,162093.25
2023-04-29T18:42:57.035Z,162097.19
2023-04-29T18:46:01.167Z,162082.78
2023-04-29T18:49:05.811Z,162085.44
2023-04-29T18:52:10.177Z,162068.38
2023-04-29T18:55:14.432Z,162064.47
2023-04-29T18:58:18.552Z,162059.19
2023-04-29T19:01:22.736Z,162053.97
2023-04-29T19:04:26.686Z,162052.63
2023-04-29T19:07:30.860Z,162059.19
2023-04-29T19:10:34.965Z,162053.97
2023-04-29T19:13:39.189Z,162042.16
2023-04-29T19:16:43.292Z,162043.47
2023-04-29T19:19:47.501Z,162039.59
2023-04-29T19:22:51.645Z,162039.59
2023-04-29T19:25:55.770Z,162027.72
2023-04-29T19:29:00.614Z,162030.38
2023-04-29T19:32:04.929Z,162026.44
2023-04-29T19:35:09.661Z,162021.22
2023-04-29T19:38:14.199Z,162013.34
2023-04-29T19:41:20.785Z,162001.59
2023-04-29T19:44:24.739Z,162006.81
2023-04-29T19:47:28.938Z,162000.25
2023-04-29T19:50:33.393Z,161998.94
2023-04-29T19:53:38.597Z,162004.19
2023-04-29T19:56:42.577Z,161998.94
2023-04-29T19:59:46.711Z,161995.00
2023-04-29T20:02:52.432Z,161997.66
2023-04-29T20:05:56.747Z,161993.72
2023-04-29T20:09:01.407Z,161993.72
2023-04-29T20:12:06.891Z,162000.25
2023-04-29T20:15:11.625Z,161989.81
2023-04-29T20:18:17.797Z,161976.69
2023-04-29T20:21:21.657Z,161987.16
2023-04-29T20:24:26.810Z,161974.06
2023-04-29T20:27:31.023Z,161981.91
2023-04-29T20:30:36.045Z,161964.91
2023-04-29T20:33:40.095Z,161964.91
2023-04-29T20:36:44.314Z,161950.50
2023-04-29T20:39:48.830Z,161953.09
2023-04-29T20:42:53.209Z,161946.56
2023-04-29T20:45:58.561Z,161953.09
2023-04-29T20:49:04.489Z,161937.41
2023-04-29T20:52:08.824Z,161930.84
2023-04-29T20:55:13.097Z,161937.41
2023-04-29T20:58:17.531Z,161926.94
2023-04-29T21:01:21.817Z,161922.97
2023-04-29T21:04:26.325Z,161925.59
2023-04-29T21:07:30.519Z,161911.16
2023-04-29T21:10:34.988Z,161915.16
2023-04-29T21:14:03.578Z,161907.25
2023-04-29T21:17:08.163Z,161908.56
2023-04-29T21:20:12.802Z,161905.97
2023-04-29T21:23:16.889Z,161908.56
2023-04-29T21:26:21.304Z,161895.47
2023-04-29T21:29:25.494Z,161891.53
2023-04-29T21:32:29.559Z,161890.25
2023-04-29T21:35:33.522Z,161875.84
2023-04-29T21:38:38.058Z,161882.38
2023-04-29T21:41:43.189Z,161865.41
2023-04-29T21:44:55.726Z,161865.41
2023-04-29T21:48:11.063Z,161851.00
2023-04-29T21:51:15.097Z,161849.66
2023-04-29T21:54:19.380Z,161836.53
2023-04-29T21:57:35.503Z,161816.91
2023-04-29T22:00:58.351Z,161799.88
2023-04-29T22:04:02.398Z,161789.44
2023-04-29T22:07:06.469Z,161781.56
2023-04-29T22:10:10.578Z,161765.81
2023-04-29T22:13:15.654Z,161744.97
2023-04-29T22:16:20.034Z,161739.69
2023-04-29T22:19:24.298Z,161709.56
2023-04-29T22:22:28.124Z,161686.03
2023-04-29T22:25:32.202Z,161655.88
2023-04-29T22:28:36.620Z,161650.69
2023-04-29T22:31:40.988Z,161617.94
2023-04-29T22:34:51.490Z,161608.78
2023-04-29T22:37:55.628Z,161589.16
2023-04-29T22:40:59.818Z,161585.22
2023-04-29T22:44:04.153Z,161556.47
2023-04-29T22:47:08.412Z,161536.78
2023-04-29T22:50:12.644Z,161521.06
2023-04-29T22:53:16.970Z,161498.84
2023-04-29T22:56:21.056Z,161487.09
2023-04-29T22:59:25.197Z,161485.75
2023-04-29T23:02:30.040Z,161458.28
2023-04-29T23:05:34.532Z,161441.28
2023-04-29T23:08:38.637Z,161429.53
2023-04-29T23:11:43.429Z,161408.59
2023-04-29T23:14:47.725Z,161404.66
2023-04-29T23:17:52.017Z,161391.59
2023-04-29T23:20:56.885Z,161370.66
2023-04-29T23:24:00.951Z,161365.41
2023-04-29T23:27:04.825Z,161341.84
2023-04-29T23:30:09.619Z,161339.19
2023-04-29T23:33:14.450Z,161328.78
2023-04-29T23:36:18.925Z,161297.34
2023-04-29T23:39:23.168Z,161286.91
2023-04-29T23:42:27.635Z,161264.66
2023-04-29T23:45:31.342Z,161239.81
2023-04-29T23:48:35.180Z,161245.06
2023-04-29T23:51:39.561Z,161217.59
2023-04-29T23:54:43.537Z,161199.28
2023-04-29T23:57:47.651Z,161171.81
